Aviation Digital Data Service (ADDS)

Output produced by TAFs form (1521 UTC 04 July 2015)
found at http://aviationweather.gov/adds/tafs/
 
KELP 041137Z 0412/0512 10010KT P6SM SCT070 BKN100 
     FM041600 11008KT P6SM FEW070 SCT160 
     FM050000 18012KT P6SM VCTS SCT070CB BKN250